Time;durP1;ratioP1;P1;durP2;ratioP2;P2;SDS_P1;SDS_P2;PMS_P1;PMS_P2;Temp;Humidity;BMP_temperature;BMP_pressure;BME280_temperature;BME280_humidity;BME280_pressure;Samples;Min_cycle;Max_cycle;Signal;HPM_P1;HPM_P2
2022/12/16 00:02:23;;;;;;;30.85;14.80;;;;;;;-3.77;100.00;96043.34;5038838;28;20119;-56
2022/12/16 00:04:50;;;;;;;31.00;16.00;;;;;;;-3.70;100.00;96041.53;5044100;28;20079;-58
2022/12/16 00:07:17;;;;;;;29.45;16.85;;;;;;;-3.95;100.00;96040.16;5036145;28;20042;-57
2022/12/16 00:09:43;;;;;;;34.97;17.90;;;;;;;-3.94;100.00;96043.63;5042805;28;20048;-58
2022/12/16 00:12:09;;;;;;;31.45;15.40;;;;;;;-3.89;100.00;96050.97;5040408;28;20041;-57
2022/12/16 00:14:36;;;;;;;29.83;14.80;;;;;;;-3.86;100.00;96054.06;5025736;28;20144;-56
2022/12/16 00:17:02;;;;;;;33.85;16.50;;;;;;;-3.97;100.00;96052.75;5045181;28;20130;-58
2022/12/16 00:19:30;;;;;;;31.60;14.88;;;;;;;-3.92;100.00;96053.00;5044632;28;20158;-56
2022/12/16 00:21:56;;;;;;;29.80;15.40;;;;;;;-3.73;100.00;96045.38;5040306;28;20462;-57
2022/12/16 00:24:23;;;;;;;37.00;16.17;;;;;;;-3.77;100.00;96044.13;5044752;28;20053;-57
2022/12/16 00:26:50;;;;;;;37.42;16.95;;;;;;;-3.73;100.00;96049.88;5042967;28;20045;-55
2022/12/16 00:29:17;;;;;;;31.98;16.27;;;;;;;-3.71;100.00;96042.53;5023110;28;20037;-57
2022/12/16 00:31:46;;;;;;;32.60;16.85;;;;;;;-3.82;100.00;96044.72;5024412;28;20050;-58
2022/12/16 00:34:14;;;;;;;35.75;16.38;;;;;;;-3.80;100.00;96044.50;5025270;28;20484;-58
2022/12/16 00:36:42;;;;;;;29.65;15.23;;;;;;;-3.73;100.00;96050.66;5042440;28;20428;-56
2022/12/16 00:39:10;;;;;;;35.38;17.90;;;;;;;-3.73;100.00;96049.88;5042026;28;20040;-56
2022/12/16 00:41:36;;;;;;;29.92;16.20;;;;;;;-3.71;100.00;96055.78;5024402;28;20037;-54
2022/12/16 00:44:03;;;;;;;29.48;15.23;;;;;;;-3.73;100.00;96050.66;5030321;28;20044;-57
2022/12/16 00:46:30;;;;;;;29.60;14.60;;;;;;;-3.69;100.00;96062.50;5042645;28;20049;-56
2022/12/16 00:48:56;;;;;;;33.35;16.85;;;;;;;-3.79;100.00;96056.75;5049815;28;20045;-53
2022/12/16 00:51:23;;;;;;;32.83;14.02;;;;;;;-3.82;100.00;96063.25;5037327;28;20045;-56
2022/12/16 00:53:49;;;;;;;31.98;14.73;;;;;;;-3.83;100.00;96066.88;5047498;28;20098;-57
2022/12/16 00:56:19;;;;;;;27.90;14.32;;;;;;;-3.72;100.00;96076.09;5031395;28;20068;-56
2022/12/16 00:58:46;;;;;;;27.70;14.88;;;;;;;-3.81;100.00;96080.75;5028457;28;20124;-58
2022/12/16 01:01:13;;;;;;;34.83;16.52;;;;;;;-3.89;100.00;96080.88;5041758;28;20040;-55
2022/12/16 01:03:40;;;;;;;29.90;14.52;;;;;;;-3.89;100.00;96085.34;5035213;28;20042;-56
2022/12/16 01:06:14;;;;;;;27.42;14.63;;;;;;;-3.79;100.00;96086.63;5036756;28;20029;-57
2022/12/16 01:08:47;;;;;;;32.83;16.63;;;;;;;-3.71;100.00;96087.50;5039270;28;20129;-57
2022/12/16 01:11:19;;;;;;;30.02;15.32;;;;;;;-3.64;100.00;96085.75;5028179;28;20573;-56
2022/12/16 01:13:49;;;;;;;32.10;16.55;;;;;;;-3.68;100.00;96077.34;5044476;28;20546;-55
2022/12/16 01:16:17;;;;;;;;;;;;;;;-3.75;100.00;96080.97;5033776;28;20045;-54
2022/12/16 01:18:44;;;;;;;30.92;16.52;;;;;;;-3.79;100.00;96083.19;5049148;28;20200;-55
2022/12/16 01:21:12;;;;;;;28.60;14.18;;;;;;;-3.74;100.00;96083.44;5046263;28;20639;-56
2022/12/16 01:23:39;;;;;;;33.15;16.67;;;;;;;-3.71;100.00;96091.00;5047197;28;20111;-56
2022/12/16 01:26:06;;;;;;;32.13;15.77;;;;;;;-3.71;100.00;96085.69;5033835;28;20084;-57
2022/12/16 01:28:33;;;;;;;30.10;14.70;;;;;;;-3.64;100.00;96088.38;5032882;28;20416;-55
2022/12/16 01:31:00;;;;;;;39.33;15.52;;;;;;;-3.62;100.00;96090.84;5045849;28;20045;-55
2022/12/16 01:33:29;;;;;;;28.55;14.95;;;;;;;-3.59;100.00;96096.56;5046497;28;20044;-55
2022/12/16 01:35:58;;;;;;;31.58;14.68;;;;;;;-3.65;100.00;96097.31;5047777;28;20080;-54
2022/12/16 01:38:25;;;;;;;31.02;15.07;;;;;;;-3.76;100.00;96092.56;5045906;28;20072;-56
2022/12/16 01:40:51;;;;;;;29.10;15.77;;;;;;;-3.86;100.00;96092.91;5036854;28;20492;-55
2022/12/16 01:43:24;;;;;;;29.20;14.95;;;;;;;-3.75;100.00;96099.50;5039426;28;20428;-57
2022/12/16 01:45:56;;;;;;;33.78;16.98;;;;;;;-3.84;100.00;96101.47;5043884;28;20049;-57
2022/12/16 01:48:41;;;;;;;;;;;;;;;-3.71;100.00;96106.03;5049026;28;20056;-51
2022/12/16 01:51:27;;;;;;;29.65;14.68;;;;;;;-3.77;100.00;96102.31;5033772;28;19924;-54
2022/12/16 01:54:01;;;;;;;31.85;14.52;;;;;;;-3.77;100.00;96104.97;5044918;28;20116;-57
2022/12/16 01:56:32;;;;;;;29.73;14.77;;;;;;;-3.67;100.00;96102.81;5037277;28;20057;-56
2022/12/16 01:58:59;;;;;;;29.03;15.73;;;;;;;-3.61;100.00;96113.63;5044722;28;20147;-51
2022/12/16 02:01:26;;;;;;;28.25;14.45;;;;;;;-3.70;100.00;96116.44;5043390;28;20813;-57
2022/12/16 02:03:57;;;;;;;31.08;15.57;;;;;;;-3.74;100.00;96123.09;5046098;28;20512;-54
2022/12/16 02:06:24;;;;;;;27.98;15.68;;;;;;;-3.75;100.00;96121.47;5042261;28;20124;-56
2022/12/16 02:08:55;;;;;;;29.00;14.52;;;;;;;-3.75;100.00;96115.38;5046731;28;20087;-53
2022/12/16 02:12:05;;;;;;;28.58;15.70;;;;;;;-3.72;100.00;96122.94;5043421;28;20492;-56
2022/12/16 02:14:44;;;;;;;35.33;15.50;;;;;;;-3.97;100.00;96128.63;5030589;28;20092;-56
2022/12/16 02:17:20;;;;;;;33.35;17.17;;;;;;;-4.01;100.00;96130.00;5044970;28;20120;-54
2022/12/16 02:20:06;;;;;;;34.20;15.93;;;;;;;-3.97;100.00;96139.19;5039624;28;20049;-54
2022/12/16 02:23:11;;;;;;;31.33;15.95;;;;;;;-3.89;100.00;96139.06;5043502;28;20496;-56
2022/12/16 02:26:11;;;;;;;32.65;15.75;;;;;;;-3.87;100.00;96144.16;5031741;28;20128;-56
2022/12/16 02:28:52;;;;;;;31.67;14.25;;;;;;;-3.79;100.00;96134.25;5039407;28;20532;-54
2022/12/16 02:31:35;;;;;;;33.35;15.52;;;;;;;-3.82;100.00;96129.38;5043012;28;20049;-55
2022/12/16 02:34:02;;;;;;;;;;;;;;;-3.87;100.00;96131.75;5043356;28;20045;-55
2022/12/16 02:36:31;;;;;;;24.48;12.73;;;;;;;-3.69;100.00;96135.78;5045648;28;19978;-53
2022/12/16 02:39:08;;;;;;;31.70;15.73;;;;;;;-3.68;100.00;96138.19;5045076;28;20124;-54
2022/12/16 02:41:59;;;;;;;25.50;13.45;;;;;;;-3.63;100.00;96126.22;5026585;28;20037;-57
2022/12/16 02:44:39;;;;;;;24.33;13.85;;;;;;;-3.68;100.00;96138.19;5030821;28;20041;-55
2022/12/16 02:47:06;;;;;;;27.50;13.60;;;;;;;-3.71;100.00;96135.13;5045258;28;20045;-56
2022/12/16 02:49:32;;;;;;;24.67;12.82;;;;;;;-3.79;100.00;96134.25;5040333;28;20590;-55
2022/12/16 02:51:59;;;;;;;24.70;13.27;;;;;;;-3.80;100.00;96142.38;5044465;28;20040;-57
2022/12/16 02:54:27;;;;;;;27.17;12.70;;;;;;;-3.75;100.00;96136.53;5027807;28;20065;-56
2022/12/16 02:56:53;;;;;;;25.83;13.68;;;;;;;-3.83;100.00;96138.28;5024354;28;20806;-56
2022/12/16 02:59:47;;;;;;;26.02;10.93;;;;;;;-3.91;100.00;96143.72;5028162;28;20037;-53
2022/12/16 03:02:31;;;;;;;28.83;10.88;;;;;;;-3.83;100.00;96154.16;5035919;28;20580;-55
2022/12/16 03:05:22;;;;;;;21.23;10.98;;;;;;;-3.80;100.00;96158.25;5041248;28;20045;-56
2022/12/16 03:07:51;;;;;;;24.95;12.15;;;;;;;-3.75;100.00;96160.34;5039829;28;20041;-54
2022/12/16 03:10:24;;;;;;;24.40;11.93;;;;;;;-3.77;100.00;96165.81;5063231;28;20044;-55
2022/12/16 03:12:52;;;;;;;27.08;12.93;;;;;;;-3.66;100.00;96161.81;5037947;28;20576;-54
2022/12/16 03:15:24;;;;;;;22.88;11.95;;;;;;;-3.63;100.00;96150.88;5029110;28;20071;-56
2022/12/16 03:17:54;;;;;;;24.90;12.30;;;;;;;-3.67;100.00;96155.75;5044457;28;20705;-53
2022/12/16 03:20:27;;;;;;;25.33;12.60;;;;;;;-3.63;100.00;96166.75;5044061;28;20095;-53
2022/12/16 03:22:58;;;;;;;25.30;13.27;;;;;;;-3.77;100.00;96172.94;5044313;28;20442;-51
2022/12/16 03:25:26;;;;;;;25.83;13.40;;;;;;;-3.87;100.00;96170.63;5041808;28;20045;-53
2022/12/16 03:28:06;;;;;;;28.08;13.35;;;;;;;-3.77;100.00;96171.09;5025785;28;20408;-55
2022/12/16 03:30:38;;;;;;;26.02;13.60;;;;;;;-3.79;100.00;96173.94;5034778;28;20045;-55
2022/12/16 03:33:25;;;;;;;23.92;12.45;;;;;;;-3.72;100.00;96175.84;5044207;28;20408;-56
2022/12/16 03:36:08;;;;;;;23.42;12.95;;;;;;;-3.84;100.00;96173.69;5039213;28;20045;-56
2022/12/16 03:38:37;;;;;;;20.42;11.43;;;;;;;-3.62;100.00;96171.03;5037944;28;20155;-56
2022/12/16 03:41:06;;;;;;;26.10;13.90;;;;;;;-3.80;100.00;96172.31;5039717;28;20062;-57
2022/12/16 03:43:32;;;;;;;23.23;11.57;;;;;;;-3.88;100.00;96176.94;5040739;28;20056;-56
2022/12/16 03:46:05;;;;;;;28.73;12.35;;;;;;;-3.86;100.00;96178.38;5045028;28;20044;-52
2022/12/16 03:48:31;;;;;;;;;;;;;;;-3.87;100.00;96184.63;5046444;28;20067;-57
2022/12/16 03:50:58;;;;;;;22.75;12.98;;;;;;;-3.71;100.00;96188.03;5042361;28;19924;-55
2022/12/16 03:53:25;;;;;;;23.92;11.82;;;;;;;-3.82;100.00;96192.84;5030547;28;20121;-53
2022/12/16 03:55:53;;;;;;;19.88;11.02;;;;;;;-3.71;100.00;96198.63;5044546;28;20048;-54
2022/12/16 03:58:20;;;;;;;27.08;12.13;;;;;;;-3.89;100.00;96193.78;5041496;28;20130;-56
2022/12/16 04:00:47;;;;;;;22.67;12.10;;;;;;;-3.80;100.00;96192.63;5023532;28;20043;-53
2022/12/16 04:03:13;;;;;;;21.60;10.95;;;;;;;-3.76;100.00;96201.03;5025890;28;20052;-58
2022/12/16 04:05:40;;;;;;;18.02;11.00;;;;;;;-3.73;100.00;96200.66;5038048;28;20508;-53
2022/12/16 04:08:06;;;;;;;27.27;12.25;;;;;;;-3.78;100.00;96203.84;5045234;28;20613;-54
2022/12/16 04:24:25;;;;;;;19.60;9.93;;;;;;;-3.53;100.00;96214.84;5038640;28;20059;-56
